Time;durP1;ratioP1;P1;durP2;ratioP2;P2;SDS_P1;SDS_P2;PMS_P1;PMS_P2;Temp;Humidity;BMP_temperature;BMP_pressure;BME280_temperature;BME280_humidity;BME280_pressure;Samples;Min_cycle;Max_cycle;Signal;HPM_P1;HPM_P2
2021/05/21 00:00:42;;;;;;;27.20;4.65;;;10.60;74.90;;;;;;5045750;28;20056;-65
2021/05/21 00:03:10;;;;;;;24.35;4.70;;;10.60;75.10;;;;;;5046453;28;20053;-65
2021/05/21 00:05:38;;;;;;;29.85;4.72;;;10.70;75.10;;;;;;5045315;28;20049;-65
2021/05/21 00:08:09;;;;;;;22.95;4.07;;;10.80;75.10;;;;;;5045613;28;20405;-66
2021/05/21 00:10:38;;;;;;;19.02;4.22;;;10.80;75.10;;;;;;5046629;28;20053;-66
2021/05/21 00:13:05;;;;;;;32.78;4.57;;;10.80;75.20;;;;;;5045351;28;20401;-66
2021/05/21 00:15:33;;;;;;;43.47;5.57;;;10.70;75.30;;;;;;5046697;28;20061;-64
2021/05/21 00:18:01;;;;;;;26.23;4.82;;;10.70;75.00;;;;;;5046449;28;20049;-65
2021/05/21 00:20:29;;;;;;;21.85;3.70;;;10.60;75.10;;;;;;5046925;28;20548;-65
2021/05/21 00:22:56;;;;;;;39.95;5.15;;;10.60;75.50;;;;;;5046532;28;20057;-66
2021/05/21 00:25:24;;;;;;;41.88;5.50;;;10.40;75.70;;;;;;5042176;28;20049;-66
2021/05/21 00:27:52;;;;;;;38.08;5.05;;;10.30;76.10;;;;;;5046016;28;20082;-66
2021/05/21 00:30:20;;;;;;;33.50;5.20;;;10.30;76.30;;;;;;5046710;28;20064;-67
2021/05/21 00:32:48;;;;;;;32.70;4.63;;;10.20;76.40;;;;;;5049591;28;20068;-67
2021/05/21 00:35:15;;;;;;;34.13;5.15;;;10.20;76.50;;;;;;5050607;28;20045;-66
2021/05/21 00:37:43;;;;;;;28.23;4.43;;;10.30;76.30;;;;;;5050251;28;20056;-67
2021/05/21 00:40:11;;;;;;;42.80;7.03;;;10.40;75.80;;;;;;5050564;28;20060;-67
2021/05/21 00:42:39;;;;;;;39.28;5.82;;;10.50;75.30;;;;;;5050118;28;20057;-66
2021/05/21 00:45:07;;;;;;;36.97;5.43;;;10.60;74.90;;;;;;5047199;28;20481;-67
2021/05/21 00:47:35;;;;;;;43.22;5.43;;;10.70;74.50;;;;;;5050341;28;20065;-67
2021/05/21 00:50:04;;;;;;;30.80;4.80;;;10.70;74.20;;;;;;5050895;28;20060;-66
2021/05/21 00:52:33;;;;;;;26.88;4.85;;;10.70;74.00;;;;;;5050222;28;20057;-67
2021/05/21 00:55:01;;;;;;;34.60;5.25;;;10.80;73.40;;;;;;5050065;28;20053;-68
2021/05/21 00:57:28;;;;;;;34.17;5.70;;;10.80;72.90;;;;;;5032243;28;20591;-65
2021/05/21 00:59:56;;;;;;;32.83;4.82;;;10.80;72.60;;;;;;5050332;28;20057;-66
2021/05/21 01:02:24;;;;;;;32.30;5.38;;;10.80;72.70;;;;;;5050053;28;20080;-67
2021/05/21 01:04:52;;;;;;;28.23;5.10;;;10.70;72.50;;;;;;5050607;28;20876;-69
2021/05/21 01:07:20;;;;;;;31.17;4.10;;;10.70;72.60;;;;;;5037821;28;20069;-67
2021/05/21 01:09:50;;;;;;;24.55;5.30;;;10.70;72.70;;;;;;5036901;28;20053;-69
2021/05/21 01:12:18;;;;;;;29.00;5.22;;;10.70;72.80;;;;;;5049529;28;20057;-68
2021/05/21 01:14:50;;;;;;;29.48;5.13;;;10.70;72.90;;;;;;5049779;28;20390;-68
2021/05/21 01:17:19;;;;;;;30.05;5.72;;;10.80;72.60;;;;;;5049734;28;20481;-68
2021/05/21 01:19:47;;;;;;;41.70;5.97;;;10.80;72.40;;;;;;5049726;28;20061;-69
2021/05/21 01:22:16;;;;;;;31.10;5.10;;;10.90;72.10;;;;;;5049644;28;20057;-68
2021/05/21 01:24:44;;;;;;;29.33;5.25;;;11.00;72.00;;;;;;5049442;28;20551;-68
2021/05/21 01:27:13;;;;;;;29.02;4.57;;;11.00;72.00;;;;;;5049442;28;20045;-68
2021/05/21 01:29:41;;;;;;;42.30;5.38;;;11.00;72.10;;;;;;5049552;28;20060;-68
2021/05/21 01:32:12;;;;;;;33.53;4.63;;;11.00;72.10;;;;;;5049223;28;20693;-67
2021/05/21 01:34:40;;;;;;;31.88;5.75;;;11.00;72.10;;;;;;5049550;28;20061;-68
2021/05/21 01:37:19;;;;;;;29.73;4.90;;;11.00;72.30;;;;;;5049061;28;20076;-69
2021/05/21 01:39:54;;;;;;;33.72;5.30;;;10.90;72.60;;;;;;5049430;28;20053;-69
2021/05/21 01:42:22;;;;;;;31.65;5.43;;;10.80;73.00;;;;;;5049187;28;20056;-70
2021/05/21 01:44:54;;;;;;;28.52;5.13;;;10.80;73.10;;;;;;5043448;28;20057;-71
2021/05/21 01:47:22;;;;;;;25.70;3.83;;;10.80;73.10;;;;;;5049352;28;20057;-70
2021/05/21 01:49:50;;;;;;;22.80;4.05;;;10.80;73.00;;;;;;5052236;28;20068;-71
2021/05/21 01:52:18;;;;;;;29.35;4.93;;;10.80;73.10;;;;;;5051876;28;20056;-71
2021/05/21 01:54:46;;;;;;;22.48;3.95;;;10.80;73.00;;;;;;5052240;28;20063;-69
2021/05/21 01:57:13;;;;;;;20.77;4.03;;;10.80;72.80;;;;;;5050789;28;20056;-70
2021/05/21 01:59:41;;;;;;;22.55;3.85;;;10.80;72.50;;;;;;5052472;28;20397;-71
2021/05/21 02:02:09;;;;;;;24.92;3.72;;;10.80;72.20;;;;;;5050039;28;20053;-70
2021/05/21 02:04:39;;;;;;;19.85;3.88;;;10.90;71.80;;;;;;5052083;28;20049;-71
2021/05/21 02:07:16;;;;;;;21.67;3.90;;;11.00;71.40;;;;;;5052104;28;20049;-71
2021/05/21 02:09:49;;;;;;;21.65;3.92;;;11.00;71.30;;;;;;5051988;28;20049;-70
2021/05/21 02:12:17;;;;;;;39.10;4.85;;;11.00;71.40;;;;;;5051927;28;20045;-70
2021/05/21 02:14:45;;;;;;;30.58;4.97;;;11.00;71.60;;;;;;5050228;28;20064;-71
2021/05/21 02:17:13;;;;;;;26.45;4.43;;;11.00;71.80;;;;;;5051744;28;20045;-71
2021/05/21 02:19:41;;;;;;;17.85;3.55;;;11.00;72.50;;;;;;5051799;28;20057;-71
2021/05/21 02:22:09;;;;;;;27.73;4.97;;;11.00;73.20;;;;;;5051511;28;20056;-70
2021/05/21 02:24:37;;;;;;;34.50;5.45;;;11.00;73.50;;;;;;5048661;28;20061;-71
2021/05/21 02:27:06;;;;;;;30.00;5.53;;;10.90;74.70;;;;;;5030990;28;20052;-70
2021/05/21 02:29:34;;;;;;;26.35;4.30;;;10.80;75.80;;;;;;5031806;28;20049;-70
2021/05/21 02:32:14;;;;;;;27.33;5.50;;;10.70;75.90;;;;;;5031746;28;20058;-72
2021/05/21 02:34:43;;;;;;;27.83;4.15;;;10.50;76.30;;;;;;5031791;28;20072;-73
2021/05/21 02:37:11;;;;;;;26.98;4.72;;;10.50;76.30;;;;;;5031848;28;20084;-72
2021/05/21 02:39:39;;;;;;;36.53;5.15;;;10.50;76.30;;;;;;5037086;28;20044;-71
2021/05/21 02:42:10;;;;;;;30.35;4.80;;;10.50;76.00;;;;;;5051421;28;20057;-71
2021/05/21 02:44:38;;;;;;;29.45;4.88;;;10.50;75.80;;;;;;5051365;28;20053;-72
2021/05/21 02:47:06;;;;;;;34.65;5.38;;;10.60;75.70;;;;;;5051474;28;20056;-71
2021/05/21 02:49:34;;;;;;;31.05;4.57;;;10.50;75.60;;;;;;5051181;28;20489;-72
2021/05/21 02:52:03;;;;;;;22.77;3.83;;;10.50;75.40;;;;;;5051357;28;20057;-71
2021/05/21 02:54:31;;;;;;;31.70;5.03;;;10.60;75.10;;;;;;5037377;28;20046;-71
2021/05/21 02:56:58;;;;;;;26.42;5.45;;;10.60;74.80;;;;;;5031545;28;20060;-70
2021/05/21 02:59:26;;;;;;;32.75;5.07;;;10.60;74.50;;;;;;5030994;28;20056;-71
2021/05/21 03:01:54;;;;;;;29.80;4.88;;;10.70;74.10;;;;;;5031365;28;20053;-71
2021/05/21 03:04:22;;;;;;;28.05;4.68;;;10.70;74.00;;;;;;5031236;28;20061;-71
2021/05/21 03:06:50;;;;;;;31.95;4.53;;;10.70;74.00;;;;;;5030246;28;20064;-72
2021/05/21 03:09:17;;;;;;;30.60;4.80;;;10.80;73.70;;;;;;5033762;28;20064;-71
2021/05/21 03:11:45;;;;;;;27.52;4.50;;;10.80;73.60;;;;;;5050963;28;20053;-69
2021/05/21 03:14:13;;;;;;;22.52;3.92;;;10.80;73.60;;;;;;5050911;28;20050;-70
2021/05/21 03:16:40;;;;;;;24.33;4.35;;;10.80;74.40;;;;;;5050104;28;20653;-69
2021/05/21 03:19:08;;;;;;;25.30;5.00;;;10.70;75.00;;;;;;5050837;28;20060;-69
2021/05/21 03:21:36;;;;;;;29.95;4.40;;;10.60;76.00;;;;;;5050896;28;20501;-70
2021/05/21 03:24:04;;;;;;;29.90;4.22;;;10.50;76.60;;;;;;5049510;28;20476;-69
2021/05/21 03:26:32;;;;;;;31.08;5.03;;;10.40;76.90;;;;;;5050523;28;20513;-69
2021/05/21 03:29:00;;;;;;;27.88;5.00;;;10.30;77.50;;;;;;5049209;28;20057;-71
2021/05/21 03:31:28;;;;;;;27.70;3.97;;;10.20;78.70;;;;;;5050946;28;20056;-70
2021/05/21 03:33:55;;;;;;;27.70;4.25;;;10.00;79.30;;;;;;5050567;28;20509;-71
2021/05/21 03:36:23;;;;;;;31.10;4.85;;;9.90;80.00;;;;;;5050683;28;20576;-70
2021/05/21 03:38:51;;;;;;;33.75;5.18;;;9.90;80.40;;;;;;5049003;28;20072;-68
2021/05/21 03:41:19;;;;;;;31.05;5.20;;;9.80;81.00;;;;;;5048316;28;20057;-71
2021/05/21 03:43:47;;;;;;;35.70;5.68;;;9.90;81.10;;;;;;5050409;28;20057;-72
2021/05/21 03:46:15;;;;;;;31.88;5.32;;;9.90;81.10;;;;;;5050298;28;20061;-70
2021/05/21 03:48:48;;;;;;;;;;;9.90;81.40;;;;;;5051067;28;20440;-70
2021/05/21 03:51:18;;;;;;;29.52;4.78;;;9.90;81.50;;;;;;5050608;28;19921;-69
2021/05/21 03:53:45;;;;;;;29.55;4.95;;;9.90;81.40;;;;;;5049189;28;20053;-70
2021/05/21 03:56:14;;;;;;;36.85;4.78;;;9.90;81.40;;;;;;5049377;28;20068;-70
2021/05/21 03:58:42;;;;;;;32.17;4.97;;;9.80;81.20;;;;;;5048812;28;20052;-71
2021/05/21 04:01:10;;;;;;;22.73;4.70;;;9.80;81.30;;;;;;5050555;28;20057;-69
2021/05/21 04:03:37;;;;;;;32.55;4.78;;;9.80;81.40;;;;;;5049142;28;20045;-70
2021/05/21 04:06:05;;;;;;;32.25;5.20;;;9.80;81.90;;;;;;5049627;28;20509;-72
2021/05/21 04:08:35;;;;;;;27.48;5.28;;;9.80;82.20;;;;;;5053385;28;20057;-73
2021/05/21 04:11:02;;;;;;;39.35;6.30;;;9.80;82.60;;;;;;5055081;28;20509;-70
2021/05/21 04:13:30;;;;;;;41.33;6.07;;;9.90;82.90;;;;;;5052275;28;20064;-72
2021/05/21 04:15:58;;;;;;;29.73;5.05;;;9.90;83.10;;;;;;5054065;28;20758;-70
2021/05/21 04:18:25;;;;;;;29.02;4.95;;;9.80;83.00;;;;;;5054222;28;20053;-72
2021/05/21 04:20:53;;;;;;;30.95;4.85;;;9.80;83.10;;;;;;5052935;28;20048;-73
2021/05/21 04:23:21;;;;;;;34.95;5.00;;;9.90;83.30;;;;;;5053982;28;20064;-72
2021/05/21 04:25:50;;;;;;;37.30;5.45;;;9.90;83.40;;;;;;5054082;28;20083;-73
2021/05/21 04:28:18;;;;;;;35.28;5.00;;;9.90;83.40;;;;;;5052666;28;20091;-72
2021/05/21 04:30:46;;;;;;;26.45;4.63;;;9.90;83.20;;;;;;5054053;28;20064;-71
2021/05/21 04:33:14;;;;;;;20.70;4.88;;;9.90;83.10;;;;;;5053387;28;20048;-72
2021/05/21 04:35:41;;;;;;;30.58;4.75;;;10.00;82.80;;;;;;5051390;28;20061;-71
2021/05/21 04:38:09;;;;;;;28.33;4.50;;;10.00;82.30;;;;;;5054173;28;20072;-70
2021/05/21 04:40:37;;;;;;;28.67;3.80;;;10.00;82.10;;;;;;5053619;28;20057;-70
2021/05/21 04:43:05;;;;;;;23.67;3.58;;;10.00;82.00;;;;;;5053474;28;20118;-73
2021/05/21 04:45:32;;;;;;;25.00;4.40;;;10.00;81.50;;;;;;5053581;28;20065;-72
2021/05/21 04:48:00;;;;;;;24.13;4.10;;;10.10;81.00;;;;;;5038895;28;20064;-72
2021/05/21 04:50:28;;;;;;;17.40;3.83;;;10.10;80.90;;;;;;5030175;28;20049;-71
2021/05/21 04:52:56;;;;;;;22.63;4.32;;;10.20;80.40;;;;;;5029411;28;20056;-72
2021/05/21 04:55:24;;;;;;;24.10;4.03;;;10.50;79.50;;;;;;5030365;28;20053;-72
2021/05/21 04:57:51;;;;;;;22.10;3.53;;;11.00;78.00;;;;;;5029229;28;20553;-72
2021/05/21 05:00:20;;;;;;;23.73;3.83;;;11.30;76.20;;;;;;5030385;28;20057;-70
2021/05/21 05:02:48;;;;;;;26.40;4.22;;;11.40;75.00;;;;;;5029100;28;20577;-68
2021/05/21 05:05:15;;;;;;;22.02;3.60;;;11.50;75.00;;;;;;5030567;28;20049;-72
2021/05/21 05:07:45;;;;;;;22.25;4.03;;;12.00;74.50;;;;;;5029995;28;20045;-66
2021/05/21 05:10:13;;;;;;;18.45;4.10;;;12.50;73.20;;;;;;5040316;28;20064;-68
2021/05/21 05:12:40;;;;;;;20.98;3.75;;;12.90;71.50;;;;;;5048912;28;20053;-68
2021/05/21 05:15:09;;;;;;;22.48;4.65;;;13.40;70.60;;;;;;5049994;28;20057;-69
2021/05/21 05:17:36;;;;;;;26.35;4.47;;;13.90;69.30;;;;;;5049511;28;20056;-68
2021/05/21 05:20:05;;;;;;;18.90;3.72;;;14.40;66.40;;;;;;5048215;28;20080;-68
2021/05/21 05:22:33;;;;;;;18.52;4.10;;;14.80;64.90;;;;;;5049609;28;20053;-69
2021/05/21 05:25:02;;;;;;;20.75;3.90;;;15.20;63.60;;;;;;5049903;28;20057;-68
2021/05/21 05:27:30;;;;;;;23.20;3.67;;;15.40;61.80;;;;;;5047929;28;20052;-68
2021/05/21 05:29:59;;;;;;;20.70;4.13;;;15.50;60.80;;;;;;5049728;28;20057;-69
2021/05/21 05:32:27;;;;;;;24.02;3.95;;;15.10;60.70;;;;;;5049425;28;20053;-69
2021/05/21 05:34:56;;;;;;;19.10;3.63;;;14.80;61.50;;;;;;5048356;28;20060;-67
2021/05/21 05:37:24;;;;;;;18.10;3.38;;;14.90;61.50;;;;;;5049151;28;20048;-67
2021/05/21 05:39:52;;;;;;;20.73;3.75;;;15.00;61.10;;;;;;5049430;28;20056;-68
2021/05/21 05:42:20;;;;;;;15.45;3.60;;;15.00;60.40;;;;;;5047805;28;20056;-67
2021/05/21 05:44:48;;;;;;;20.98;3.45;;;15.20;60.20;;;;;;5046866;28;20064;-67
2021/05/21 05:47:16;;;;;;;23.48;4.15;;;15.10;59.60;;;;;;5045775;28;20068;-67
2021/05/21 05:49:44;;;;;;;19.88;3.80;;;14.80;60.50;;;;;;5028039;28;20390;-68
2021/05/21 05:52:11;;;;;;;23.27;4.47;;;14.50;61.30;;;;;;5042848;28;20049;-68
2021/05/21 05:54:40;;;;;;;22.85;3.88;;;14.60;61.40;;;;;;5047304;28;20913;-68
2021/05/21 05:57:07;;;;;;;16.83;3.13;;;14.70;60.70;;;;;;5048711;28;20108;-66
2021/05/21 05:59:38;;;;;;;21.83;3.85;;;14.80;60.40;;;;;;5045966;28;20049;-67
2021/05/21 06:02:06;;;;;;;20.05;3.95;;;15.30;60.10;;;;;;5043619;28;20048;-68
2021/05/21 06:04:34;;;;;;;18.48;3.60;;;15.80;59.20;;;;;;5045905;28;20048;-67
2021/05/21 06:07:02;;;;;;;17.60;3.67;;;16.30;56.30;;;;;;5046565;28;20076;-67
2021/05/21 06:09:30;;;;;;;16.70;2.97;;;16.70;55.70;;;;;;5048126;28;20057;-67
2021/05/21 06:11:58;;;;;;;21.85;3.55;;;16.60;54.70;;;;;;5048548;28;20053;-69
2021/05/21 06:14:26;;;;;;;17.98;4.47;;;16.00;55.40;;;;;;5047722;28;20056;-68
2021/05/21 06:16:54;;;;;;;17.23;3.60;;;15.50;56.30;;;;;;5046499;28;20412;-69
2021/05/21 06:19:39;;;;;;;16.02;3.30;;;15.20;57.30;;;;;;5047955;28;20087;-70
2021/05/21 06:22:12;;;;;;;15.00;3.13;;;15.00;58.00;;;;;;5045086;28;20060;-69
2021/05/21 06:24:42;;;;;;;15.98;3.20;;;14.90;58.70;;;;;;5045492;28;20151;-67
2021/05/21 06:27:19;;;;;;;18.60;3.72;;;14.60;59.20;;;;;;5045767;28;20064;-66
2021/05/21 06:29:47;;;;;;;21.23;3.47;;;14.30;60.10;;;;;;5046236;28;20064;-67
2021/05/21 06:32:15;;;;;;;24.50;3.90;;;13.90;61.00;;;;;;5046751;28;21330;-68
2021/05/21 06:34:43;;;;;;;16.10;3.45;;;13.60;62.10;;;;;;5046738;28;20063;-67
2021/05/21 06:37:23;;;;;;;16.02;3.47;;;13.30;64.10;;;;;;5046981;28;20053;-69
2021/05/21 06:40:09;;;;;;;17.30;3.88;;;13.00;65.50;;;;;;5046575;28;20135;-67
2021/05/21 06:42:36;;;;;;;19.58;3.50;;;12.80;66.60;;;;;;5045902;28;20065;-67
2021/05/21 06:45:05;;;;;;;22.85;3.92;;;12.70;66.80;;;;;;5047348;28;20059;-67
2021/05/21 06:47:34;;;;;;;18.05;3.88;;;12.80;66.60;;;;;;5047075;28;20045;-68
2021/05/21 06:50:04;;;;;;;15.30;3.72;;;13.30;65.70;;;;;;5045857;28;20069;-68
2021/05/21 06:52:32;;;;;;;23.35;3.75;;;13.90;64.20;;;;;;5046262;28;20413;-69
2021/05/21 06:55:00;;;;;;;23.58;3.88;;;14.30;61.70;;;;;;5047211;28;20057;-68
2021/05/21 06:57:28;;;;;;;22.85;4.65;;;14.60;61.10;;;;;;5045642;28;20057;-68
2021/05/21 06:59:59;;;;;;;19.52;3.78;;;14.80;60.30;;;;;;5046879;28;20053;-68
2021/05/21 07:02:29;;;;;;;18.50;3.78;;;15.10;59.90;;;;;;5047491;28;20051;-67
2021/05/21 07:05:00;;;;;;;22.25;3.28;;;15.20;59.30;;;;;;5048216;28;20512;-69
2021/05/21 07:07:32;;;;;;;16.42;3.25;;;15.30;58.50;;;;;;5047148;28;20057;-67
2021/05/21 07:10:00;;;;;;;15.27;2.95;;;15.90;58.00;;;;;;5046027;28;20053;-69
2021/05/21 07:12:29;;;;;;;20.30;3.40;;;16.40;56.40;;;;;;5046405;28;20091;-68
2021/05/21 07:14:58;;;;;;;19.83;3.60;;;16.50;54.10;;;;;;5046814;28;20053;-69
2021/05/21 07:17:26;;;;;;;18.83;3.78;;;16.60;54.80;;;;;;5046020;28;20056;-66
2021/05/21 07:19:54;;;;;;;15.13;3.17;;;17.10;53.50;;;;;;5046649;28;20049;-69
2021/05/21 07:22:22;;;;;;;14.65;3.35;;;17.40;52.20;;;;;;5045257;28;20068;-68
2021/05/21 07:24:53;;;;;;;16.55;3.20;;;17.50;51.60;;;;;;5046717;28;20112;-68
2021/05/21 07:27:21;;;;;;;13.80;3.30;;;17.80;51.60;;;;;;5047203;28;20076;-67
2021/05/21 07:29:49;;;;;;;12.52;2.53;;;18.20;50.90;;;;;;5046359;28;20053;-68
2021/05/21 07:32:17;;;;;;;11.73;2.45;;;18.70;50.80;;;;;;5045374;28;20049;-68
2021/05/21 07:34:45;;;;;;;19.25;3.42;;;18.90;48.80;;;;;;5047652;28;20072;-68
2021/05/21 07:37:17;;;;;;;15.18;3.72;;;19.20;49.00;;;;;;5046060;28;20044;-68
2021/05/21 07:39:45;;;;;;;7.25;2.05;;;19.50;48.30;;;;;;5044905;28;20068;-68
2021/05/21 07:42:13;;;;;;;16.05;3.35;;;19.80;47.70;;;;;;5043874;28;20053;-68
2021/05/21 07:44:41;;;;;;;12.50;3.15;;;20.00;46.40;;;;;;5046075;28;20053;-64
2021/05/21 07:47:09;;;;;;;20.40;3.83;;;20.30;45.80;;;;;;5043886;28;20060;-64
2021/05/21 07:49:41;;;;;;;15.63;4.00;;;20.40;45.20;;;;;;5026848;28;20050;-65
2021/05/21 07:52:09;;;;;;;12.90;3.60;;;20.60;45.20;;;;;;5046651;28;20520;-64
2021/05/21 07:54:37;;;;;;;19.10;3.95;;;20.80;44.80;;;;;;5046074;28;20049;-64
2021/05/21 07:57:05;;;;;;;15.85;3.53;;;20.80;44.30;;;;;;5046238;28;20053;-64
2021/05/21 07:59:33;;;;;;;15.57;3.47;;;20.80;44.60;;;;;;5046855;28;20576;-64
2021/05/21 08:02:01;;;;;;;18.48;3.83;;;21.00;43.80;;;;;;5046871;28;20053;-65
2021/05/21 08:04:30;;;;;;;15.55;3.63;;;21.20;43.70;;;;;;5047122;28;20068;-65
2021/05/21 08:06:59;;;;;;;14.95;3.55;;;21.30;43.20;;;;;;5047584;28;20689;-66
2021/05/21 08:09:27;;;;;;;17.52;3.58;;;20.90;43.40;;;;;;5045987;28;20053;-67
2021/05/21 08:11:55;;;;;;;19.30;4.38;;;20.50;43.90;;;;;;5047226;28;20079;-65
2021/05/21 08:14:22;;;;;;;13.32;3.03;;;20.30;43.70;;;;;;5047585;28;20066;-66
2021/05/21 08:16:50;;;;;;;20.55;3.67;;;20.20;43.50;;;;;;5039974;28;20045;-63
2021/05/21 08:19:38;;;;;;;17.45;2.97;;;20.10;43.50;;;;;;5024689;28;20048;-64
2021/05/21 08:22:06;;;;;;;16.23;3.50;;;19.80;43.90;;;;;;5045313;28;20509;-64
2021/05/21 08:24:35;;;;;;;19.38;4.03;;;19.30;44.50;;;;;;5043648;28;20057;-62
2021/05/21 08:27:03;;;;;;;16.00;3.58;;;18.80;45.50;;;;;;5045486;28;20068;-63
2021/05/21 08:29:33;;;;;;;13.70;3.53;;;18.50;46.20;;;;;;5027857;28;20509;-61
2021/05/21 08:32:02;;;;;;;21.42;3.90;;;18.40;46.60;;;;;;5045172;28;20067;-64
2021/05/21 08:34:30;;;;;;;13.40;2.97;;;18.40;46.90;;;;;;5043829;28;20056;-63
2021/05/21 08:36:58;;;;;;;15.73;3.42;;;18.30;46.70;;;;;;5043721;28;20057;-61
2021/05/21 08:39:27;;;;;;;11.45;3.28;;;17.90;47.00;;;;;;5045410;28;20067;-62
2021/05/21 08:41:58;;;;;;;18.65;3.67;;;17.50;47.80;;;;;;5027243;28;20073;-65
2021/05/21 08:44:29;;;;;;;16.77;4.00;;;17.10;48.90;;;;;;5046363;28;20061;-64
2021/05/21 08:47:00;;;;;;;17.73;3.83;;;17.00;49.70;;;;;;5040663;28;20068;-63
2021/05/21 08:49:29;;;;;;;14.45;3.60;;;17.00;50.30;;;;;;5029439;28;20065;-65
2021/05/21 08:51:57;;;;;;;15.27;3.50;;;17.10;50.40;;;;;;5025359;28;20076;-64
2021/05/21 08:54:34;;;;;;;12.48;3.03;;;17.30;50.20;;;;;;5030450;28;20057;-64
2021/05/21 08:57:10;;;;;;;19.48;4.07;;;17.60;49.30;;;;;;5030484;28;20413;-64
2021/05/21 08:59:39;;;;;;;14.95;3.45;;;17.80;48.90;;;;;;5030367;28;20442;-64
2021/05/21 09:02:07;;;;;;;15.68;3.33;;;17.80;48.60;;;;;;5036311;28;20053;-64
2021/05/21 09:04:51;;;;;;;20.77;3.85;;;17.90;48.70;;;;;;5039704;28;20052;-64
2021/05/21 09:07:33;;;;;;;15.00;3.55;;;17.80;48.40;;;;;;5028547;28;20049;-64
2021/05/21 09:10:16;;;;;;;18.23;3.13;;;17.50;49.00;;;;;;5031446;28;20256;-64
2021/05/21 09:12:52;;;;;;;13.20;3.03;;;17.30;49.70;;;;;;5040850;28;20049;-64
2021/05/21 09:15:22;;;;;;;12.55;3.03;;;16.90;50.30;;;;;;5018050;28;20057;-65
2021/05/21 09:17:54;;;;;;;12.32;2.85;;;16.70;51.10;;;;;;5028601;28;20064;-63
2021/05/21 09:20:36;;;;;;;19.73;3.60;;;16.80;51.50;;;;;;5032308;28;20053;-64
2021/05/21 09:23:07;;;;;;;17.25;3.03;;;16.80;51.00;;;;;;5048200;28;20056;-65
2021/05/21 09:25:47;;;;;;;17.60;3.58;;;16.50;51.20;;;;;;5048221;28;20533;-66
2021/05/21 09:28:35;;;;;;;13.90;4.38;;;16.40;51.70;;;;;;5049062;28;20068;-65
2021/05/21 09:31:19;;;;;;;21.80;3.55;;;16.30;52.00;;;;;;5050056;28;20049;-66
2021/05/21 09:33:52;;;;;;;;;;;16.00;52.60;;;;;;5048129;28;20057;-64
2021/05/21 09:36:28;;;;;;;23.42;3.38;;;15.80;52.90;;;;;;5047445;28;19932;-64
2021/05/21 09:38:57;;;;;;;20.35;3.38;;;15.60;53.50;;;;;;5048460;28;20053;-64
2021/05/21 09:41:49;;;;;;;12.55;2.83;;;15.30;53.80;;;;;;5026629;28;20053;-63
2021/05/21 09:44:18;;;;;;;14.48;3.42;;;15.00;54.70;;;;;;5025617;28;20049;-61
2021/05/21 09:46:49;;;;;;;21.70;3.72;;;14.80;54.90;;;;;;5028265;28;20398;-64
2021/05/21 09:49:34;;;;;;;17.05;3.35;;;14.60;55.50;;;;;;5026716;28;20060;-66
2021/05/21 09:52:09;;;;;;;15.68;3.45;;;14.50;56.60;;;;;;5027690;28;20041;-65
2021/05/21 09:54:56;;;;;;;19.83;3.85;;;14.30;57.40;;;;;;5027714;28;20045;-63
2021/05/21 09:57:31;;;;;;;20.42;4.10;;;14.30;57.90;;;;;;5029330;28;20080;-65
2021/05/21 10:00:00;;;;;;;16.60;3.40;;;14.20;57.70;;;;;;5026306;28;20064;-65
2021/05/21 10:02:30;;;;;;;13.32;3.30;;;14.30;57.40;;;;;;5027229;28;20045;-67
2021/05/21 10:05:00;;;;;;;17.65;3.28;;;14.50;57.00;;;;;;5026265;28;20057;-65
2021/05/21 10:07:28;;;;;;;22.42;4.35;;;14.50;56.80;;;;;;5027198;28;20072;-64
2021/05/21 10:09:57;;;;;;;19.30;3.72;;;14.60;56.60;;;;;;5035351;28;20060;-60
2021/05/21 10:12:25;;;;;;;21.25;3.95;;;14.60;56.50;;;;;;5046003;28;20084;-67
2021/05/21 10:14:54;;;;;;;16.83;2.88;;;14.80;56.40;;;;;;5044405;28;20068;-66
2021/05/21 10:17:23;;;;;;;24.15;4.30;;;14.80;55.80;;;;;;5047994;28;20406;-64
2021/05/21 10:19:54;;;;;;;14.48;3.40;;;14.90;55.40;;;;;;5047534;28;20048;-65
2021/05/21 10:22:32;;;;;;;22.13;4.45;;;14.90;55.40;;;;;;5048384;28;20059;-65
2021/05/21 10:25:07;;;;;;;14.98;3.35;;;15.10;55.50;;;;;;5047813;28;20053;-65
2021/05/21 10:27:38;;;;;;;17.48;3.60;;;15.10;54.50;;;;;;5047736;28;20045;-65
2021/05/21 10:30:07;;;;;;;33.78;4.07;;;15.00;54.80;;;;;;5048499;28;20059;-62
2021/05/21 10:32:36;;;;;;;17.70;3.45;;;15.20;54.80;;;;;;5048572;28;20417;-63
2021/05/21 10:35:19;;;;;;;18.98;3.40;;;15.30;54.20;;;;;;5048737;28;20053;-62
2021/05/21 10:38:23;;;;;;;14.45;3.10;;;15.30;53.70;;;;;;5048605;28;20057;-63
2021/05/21 10:41:17;;;;;;;11.80;2.97;;;15.30;53.80;;;;;;5047061;28;20061;-64
2021/05/21 10:43:55;;;;;;;21.73;2.80;;;15.20;53.70;;;;;;5047201;28;20072;-64
2021/05/21 10:46:42;;;;;;;15.32;2.47;;;15.20;53.60;;;;;;5047384;28;20355;-65
2021/05/21 10:49:25;;;;;;;22.88;4.15;;;15.10;53.90;;;;;;5046847;28;20067;-64
2021/05/21 10:51:55;;;;;;;14.35;2.70;;;15.00;54.80;;;;;;5048175;28;20052;-64
2021/05/21 10:54:40;;;;;;;18.90;4.03;;;14.80;55.60;;;;;;5048259;28;20072;-64
2021/05/21 10:57:11;;;;;;;18.83;3.50;;;14.80;56.10;;;;;;5048107;28;20045;-62
2021/05/21 10:59:52;;;;;;;23.40;4.30;;;14.80;56.10;;;;;;5046903;28;20056;-62
2021/05/21 11:02:24;;;;;;;12.48;3.50;;;14.90;55.80;;;;;;5047781;28;20058;-65
2021/05/21 11:04:54;;;;;;;21.50;4.40;;;15.00;55.80;;;;;;5048001;28;20045;-65
2021/05/21 11:07:40;;;;;;;18.98;3.95;;;15.30;55.50;;;;;;5045263;28;20052;-65
2021/05/21 11:10:24;;;;;;;15.88;3.05;;;15.50;54.60;;;;;;5040111;28;20061;-63
2021/05/21 11:13:00;;;;;;;22.83;5.20;;;15.70;53.70;;;;;;5037201;28;20045;-63
2021/05/21 11:15:51;;;;;;;14.18;2.97;;;15.70;53.50;;;;;;5040212;28;20057;-64
2021/05/21 11:18:19;;;;;;;11.68;3.17;;;15.70;53.90;;;;;;5030178;28;20049;-63
2021/05/21 11:21:08;;;;;;;19.98;3.55;;;15.60;54.50;;;;;;5032442;28;20053;-63
2021/05/21 11:23:44;;;;;;;18.20;3.80;;;15.40;55.10;;;;;;5042812;28;20075;-62
2021/05/21 11:26:13;;;;;;;23.50;4.10;;;15.40;56.00;;;;;;5047414;28;20182;-62
2021/05/21 11:28:49;;;;;;;19.90;4.30;;;15.30;57.80;;;;;;5047415;28;20413;-64
2021/05/21 11:31:30;;;;;;;24.73;4.32;;;15.10;59.40;;;;;;5047606;28;20048;-64
2021/05/21 11:34:03;;;;;;;17.33;3.70;;;14.90;60.10;;;;;;5033172;28;20053;-62
2021/05/21 11:36:35;;;;;;;16.55;3.83;;;15.00;61.20;;;;;;5044496;28;20236;-64
2021/05/21 11:39:05;;;;;;;18.30;3.58;;;15.10;61.10;;;;;;5050934;28;20471;-63
2021/05/21 11:41:35;;;;;;;23.35;3.50;;;15.30;60.70;;;;;;5046313;28;20049;-64
2021/05/21 11:44:08;;;;;;;20.77;3.92;;;15.30;60.60;;;;;;5044317;28;20080;-65
2021/05/21 11:46:42;;;;;;;27.90;4.30;;;15.20;61.00;;;;;;5047301;28;20049;-64
2021/05/21 11:49:23;;;;;;;;;;;15.10;61.90;;;;;;5047504;28;20401;-64
2021/05/21 11:51:56;;;;;;;17.50;3.83;;;14.90;62.80;;;;;;5047400;28;19920;-65
2021/05/21 11:54:26;;;;;;;19.73;4.38;;;14.80;63.10;;;;;;5043835;28;20726;-63
2021/05/21 11:56:56;;;;;;;14.05;2.78;;;14.80;62.70;;;;;;5045698;28;20445;-62
2021/05/21 11:59:25;;;;;;;22.38;4.07;;;14.90;63.30;;;;;;5045372;28;20409;-63
2021/05/21 12:01:58;;;;;;;18.35;2.92;;;15.00;63.00;;;;;;5037866;28;20054;-62
2021/05/21 12:04:34;;;;;;;20.83;3.17;;;14.90;63.10;;;;;;5042888;28;20053;-63
2021/05/21 12:07:03;;;;;;;19.38;3.38;;;14.90;63.40;;;;;;5045687;28;20440;-65
2021/05/21 12:09:32;;;;;;;19.17;3.22;;;14.90;63.80;;;;;;5039765;28;20056;-65
2021/05/21 12:12:00;;;;;;;17.85;3.65;;;15.10;63.90;;;;;;5045166;28;20410;-64
2021/05/21 12:14:29;;;;;;;20.88;3.50;;;15.10;64.10;;;;;;5021901;28;20045;-64
2021/05/21 12:16:58;;;;;;;23.85;3.75;;;15.00;64.70;;;;;;5045118;28;20056;-64
2021/05/21 12:19:26;;;;;;;19.10;3.28;;;14.90;65.10;;;;;;5046416;28;20049;-64
2021/05/21 12:21:58;;;;;;;17.85;2.80;;;14.90;65.40;;;;;;5046927;28;20057;-64
2021/05/21 12:24:28;;;;;;;15.38;3.38;;;15.00;65.00;;;;;;5046428;28;20049;-64
2021/05/21 12:26:56;;;;;;;19.85;3.63;;;15.00;64.30;;;;;;5053641;28;20053;-66
2021/05/21 12:29:27;;;;;;;24.75;3.25;;;15.00;64.50;;;;;;5048891;28;20086;-65
2021/05/21 12:31:57;;;;;;;18.55;3.35;;;15.00;64.70;;;;;;5046218;28;20059;-62
2021/05/21 12:34:28;;;;;;;19.90;3.17;;;15.10;64.20;;;;;;5048324;28;20076;-65
2021/05/21 12:37:06;;;;;;;22.15;3.75;;;15.10;64.50;;;;;;5048964;28;20048;-65
2021/05/21 12:39:43;;;;;;;23.48;3.78;;;15.10;64.50;;;;;;5048682;28;20053;-65
2021/05/21 12:42:15;;;;;;;17.15;3.60;;;15.00;64.50;;;;;;5048184;28;20381;-65
2021/05/21 12:44:51;;;;;;;28.02;4.28;;;15.00;63.90;;;;;;5049190;28;20457;-64
2021/05/21 12:47:20;;;;;;;27.63;4.13;;;14.80;64.00;;;;;;5048353;28;20048;-65
2021/05/21 12:49:50;;;;;;;23.33;4.10;;;14.70;64.50;;;;;;5047155;28;20045;-64
2021/05/21 12:52:18;;;;;;;21.38;3.78;;;14.60;65.00;;;;;;5049947;28;20067;-64
2021/05/21 12:54:47;;;;;;;17.92;3.25;;;14.50;65.40;;;;;;5049953;28;20049;-65